Time;durP1;ratioP1;P1;durP2;ratioP2;P2;SDS_P1;SDS_P2;PMS_P1;PMS_P2;Temp;Humidity;BMP_temperature;BMP_pressure;BME280_temperature;BME280_humidity;BME280_pressure;Samples;Min_cycle;Max_cycle;Signal;HPM_P1;HPM_P2
2022/08/03 00:00:51;;;;;;;3.28;2.42;;;19.50;97.10;;;19.54;79.98;97308.53;4972698;28;20138;-46
2022/08/03 00:03:17;;;;;;;3.08;2.53;;;19.50;97.10;;;19.53;79.59;97299.66;4976870;28;20466;-45
2022/08/03 00:05:42;;;;;;;2.92;2.50;;;19.50;97.10;;;19.52;79.72;97303.28;4970222;28;20754;-44
2022/08/03 00:08:08;;;;;;;2.92;2.60;;;19.50;97.10;;;19.49;80.18;97294.63;4974935;28;20463;-44
2022/08/03 00:10:34;;;;;;;3.70;2.67;;;19.50;97.30;;;19.46;80.65;97295.72;4975792;28;20042;-45
2022/08/03 00:12:59;;;;;;;4.40;2.83;;;19.50;97.50;;;19.41;80.84;97298.72;4967164;28;20049;-44
2022/08/03 00:15:25;;;;;;;3.97;2.50;;;19.40;97.70;;;19.36;81.16;97302.72;4980306;28;20034;-45
2022/08/03 00:17:51;;;;;;;2.80;2.45;;;19.40;97.90;;;19.26;81.55;97281.16;4979231;28;20504;-48
2022/08/03 00:20:17;;;;;;;4.05;2.60;;;19.30;98.10;;;19.29;81.99;97291.66;4979589;28;20424;-49
2022/08/03 00:22:43;;;;;;;3.35;2.50;;;19.30;98.40;;;19.25;82.31;97295.50;4973313;28;20551;-46
2022/08/03 00:25:08;;;;;;;4.40;2.60;;;19.30;98.50;;;19.21;82.94;97286.84;4976465;28;20444;-45
2022/08/03 00:27:34;;;;;;;7.03;2.72;;;19.20;98.70;;;19.17;82.89;97292.56;4976268;28;20040;-44
2022/08/03 00:30:00;;;;;;;3.22;2.58;;;19.20;98.90;;;19.13;82.58;97291.03;4975263;28;21815;-45
2022/08/03 00:32:25;;;;;;;3.47;2.40;;;19.10;98.90;;;19.10;82.57;97291.28;4976019;28;20031;-45
2022/08/03 00:34:51;;;;;;;3.88;2.42;;;19.10;99.00;;;19.06;82.66;97285.31;4968683;28;20042;-48
2022/08/03 00:37:17;;;;;;;3.92;2.70;;;19.10;99.10;;;19.07;82.29;97289.69;4979534;28;20047;-45
2022/08/03 00:39:45;;;;;;;3.60;2.65;;;19.10;99.10;;;19.05;82.56;97284.44;4975235;28;20042;-44
2022/08/03 00:42:10;;;;;;;2.55;2.08;;;19.10;99.20;;;19.03;82.75;97291.72;4978109;28;20053;-44
2022/08/03 00:44:40;;;;;;;3.40;2.38;;;19.00;99.40;;;19.01;82.38;97287.47;4982816;28;20038;-44
2022/08/03 00:47:06;;;;;;;2.85;2.13;;;19.00;99.30;;;18.97;81.63;97283.28;4978286;28;20116;-44
2022/08/03 00:49:32;;;;;;;4.20;2.13;;;19.00;99.10;;;18.99;81.21;97292.06;4959009;28;20171;-45
2022/08/03 00:51:59;;;;;;;4.63;2.38;;;19.00;99.10;;;18.97;81.54;97280.63;4961864;28;20039;-44
2022/08/03 00:54:25;;;;;;;3.05;2.10;;;19.00;99.20;;;18.97;80.82;97288.63;4963329;28;20088;-45
2022/08/03 00:56:51;;;;;;;3.22;2.15;;;19.00;99.10;;;18.98;80.74;97277.00;4968454;28;20186;-46
2022/08/03 00:59:17;;;;;;;1.90;1.70;;;19.00;99.20;;;19.01;80.55;97282.97;4970598;28;20047;-47
2022/08/03 01:01:43;;;;;;;2.83;2.20;;;19.00;99.20;;;19.05;80.75;97278.25;4975924;28;20048;-45
2022/08/03 01:04:09;;;;;;;3.17;2.35;;;19.10;99.20;;;19.09;81.10;97285.06;4977961;28;20035;-46
2022/08/03 01:06:51;;;;;;;3.03;2.50;;;19.10;99.40;;;19.12;81.20;97278.66;4974108;28;20503;-44
2022/08/03 01:09:48;;;;;;;2.50;2.17;;;19.10;99.60;;;19.14;81.27;97274.06;4963374;28;20134;-44
2022/08/03 01:12:27;;;;;;;2.40;2.17;;;19.10;99.60;;;19.14;80.45;97277.56;4977109;28;20030;-48
2022/08/03 01:15:04;;;;;;;2.88;2.17;;;19.10;99.40;;;19.11;81.07;97272.44;4977473;28;20041;-44
2022/08/03 01:17:43;;;;;;;2.55;2.30;;;19.10;99.60;;;19.08;81.65;97272.69;4963343;28;20030;-43
2022/08/03 01:20:10;;;;;;;2.67;2.22;;;19.10;99.80;;;19.04;80.90;97272.06;4966807;28;20116;-44
2022/08/03 01:22:59;;;;;;;3.13;2.35;;;19.10;99.70;;;19.06;79.97;97272.81;4965947;28;20103;-46
2022/08/03 01:25:55;;;;;;;2.67;2.20;;;19.10;99.50;;;19.04;80.35;97277.41;4976649;28;20041;-45
2022/08/03 01:29:21;;;;;;;3.30;2.38;;;19.00;99.60;;;19.00;81.66;97267.88;4982227;28;20095;-45
2022/08/03 01:31:58;;;;;;;4.07;2.88;;;19.00;99.90;;;18.92;83.77;97261.44;4893099;28;20041;-46
2022/08/03 01:34:30;;;;;;;3.30;2.63;;;18.90;99.90;;;18.90;85.25;97256.19;4961499;28;20031;-44
2022/08/03 01:36:58;;;;;;;3.05;2.65;;;18.90;99.90;;;18.85;86.41;97263.69;4961506;28;20042;-44
2022/08/03 01:39:25;;;;;;;3.35;2.55;;;18.90;99.90;;;18.80;86.45;97261.28;4970972;28;20038;-45
2022/08/03 01:41:58;;;;;;;3.40;2.72;;;18.80;99.90;;;18.75;86.46;97260.78;4965185;28;20033;-43
2022/08/03 01:44:29;;;;;;;3.58;2.40;;;18.80;99.90;;;18.71;86.68;97256.63;4959593;28;20030;-46
2022/08/03 01:47:01;;;;;;;2.72;2.30;;;18.70;99.90;;;18.68;86.79;97256.84;4976958;28;20022;-44
2022/08/03 01:49:32;;;;;;;2.95;2.50;;;18.70;99.90;;;18.65;86.42;97255.25;4979921;28;20028;-45
2022/08/03 01:52:00;;;;;;;3.28;2.13;;;18.70;99.90;;;18.64;86.11;97258.03;4971513;28;20045;-45
2022/08/03 01:54:28;;;;;;;4.10;2.42;;;18.70;99.90;;;18.59;86.77;97257.50;4965384;28;20042;-44
2022/08/03 01:56:57;;;;;;;2.92;2.30;;;18.60;99.90;;;18.57;86.85;97251.41;4963358;28;20490;-43
2022/08/03 01:59:28;;;;;;;2.85;2.13;;;18.60;99.90;;;18.51;86.60;97252.72;4979170;28;20041;-46
2022/08/03 02:01:54;;;;;;;3.20;2.35;;;18.60;99.90;;;18.49;86.27;97247.47;4956740;28;20038;-44
2022/08/03 02:04:22;;;;;;;3.58;2.50;;;18.50;99.90;;;18.47;86.68;97251.25;4962537;28;20420;-45
2022/08/03 02:06:48;;;;;;;2.85;2.42;;;18.50;99.90;;;18.42;87.46;97248.88;4944092;28;20031;-44
2022/08/03 02:09:16;;;;;;;2.75;2.13;;;18.40;99.90;;;18.38;88.31;97247.41;4977039;28;20077;-44
2022/08/03 02:11:42;;;;;;;2.75;2.20;;;18.40;99.90;;;18.37;88.04;97250.19;4962749;28;20030;-44
2022/08/03 02:14:09;;;;;;;4.30;2.65;;;18.40;99.90;;;18.34;88.52;97245.94;4975081;28;20129;-44
2022/08/03 02:16:37;;;;;;;3.20;2.70;;;18.40;99.90;;;18.33;89.55;97246.88;4962115;28;20145;-45
2022/08/03 02:19:05;;;;;;;3.63;2.58;;;18.30;99.90;;;18.29;90.79;97246.22;4962457;28;20031;-45
2022/08/03 02:21:35;;;;;;;2.90;2.58;;;18.30;99.90;;;18.26;91.77;97248.28;4974771;28;20103;-46
2022/08/03 02:24:03;;;;;;;4.20;2.60;;;18.30;99.90;;;18.24;91.94;97242.19;4971655;28;20445;-44
2022/08/03 02:26:30;;;;;;;2.72;2.42;;;18.30;99.90;;;18.21;92.25;97245.06;4965437;28;20017;-45
2022/08/03 02:29:02;;;;;;;2.95;2.65;;;18.20;99.90;;;18.17;92.98;97246.25;4949307;28;20389;-44
2022/08/03 02:31:32;;;;;;;3.95;2.78;;;18.20;99.90;;;18.13;93.91;97249.13;4956424;28;20099;-44
2022/08/03 02:34:05;;;;;;;6.00;2.50;;;18.20;99.90;;;18.09;94.59;97250.31;4971993;28;20319;-44
2022/08/03 02:36:36;;;;;;;3.30;2.50;;;18.10;99.90;;;18.07;95.08;97246.91;4972705;28;20026;-44
2022/08/03 02:39:04;;;;;;;3.90;2.80;;;18.10;99.90;;;18.04;95.64;97249.78;4971548;28;20527;-44
2022/08/03 02:41:41;;;;;;;6.07;3.17;;;18.10;99.90;;;18.02;96.09;97250.84;4957848;28;20038;-44
2022/08/03 02:44:09;;;;;;;4.22;2.90;;;18.00;99.90;;;17.85;96.83;97220.84;4972083;28;20034;-44
2022/08/03 02:46:41;;;;;;;4.05;2.90;;;18.00;99.90;;;17.98;96.89;97252.88;4958738;28;20034;-44
2022/08/03 02:49:09;;;;;;;3.28;2.67;;;18.00;99.90;;;17.95;96.93;97242.41;4976694;28;20042;-45
2022/08/03 02:51:36;;;;;;;4.93;2.78;;;18.00;99.90;;;17.83;96.89;97227.22;4976952;28;20027;-44
2022/08/03 02:54:04;;;;;;;4.65;2.78;;;18.00;99.90;;;17.92;97.31;97239.94;4963085;28;20029;-44
2022/08/03 02:56:30;;;;;;;5.13;2.92;;;18.00;99.90;;;17.89;97.35;97241.03;4956410;28;20085;-45
2022/08/03 02:58:58;;;;;;;3.90;2.85;;;17.90;99.90;;;17.89;97.39;97248.16;4956150;28;20434;-45
2022/08/03 03:01:26;;;;;;;3.88;2.78;;;17.90;99.90;;;17.87;98.08;97240.28;4959186;28;20048;-45
2022/08/03 03:03:54;;;;;;;4.13;3.22;;;17.90;99.90;;;17.84;99.92;97237.78;4975772;28;20031;-43
2022/08/03 03:06:21;;;;;;;4.10;3.17;;;17.90;99.90;;;17.80;100.00;97244.31;4973259;28;20477;-45
2022/08/03 03:08:47;;;;;;;4.18;3.05;;;17.90;99.90;;;17.76;100.00;97237.44;4971120;28;20446;-46
2022/08/03 03:11:16;;;;;;;3.38;2.65;;;17.80;99.90;;;17.77;100.00;97241.84;4977014;28;20092;-45
2022/08/03 03:13:43;;;;;;;4.45;3.40;;;17.80;99.90;;;17.71;100.00;97237.78;4960880;28;20411;-43
2022/08/03 03:16:12;;;;;;;3.17;2.85;;;17.80;99.90;;;17.73;100.00;97241.19;4957702;28;20035;-45
2022/08/03 03:18:39;;;;;;;3.70;3.30;;;17.80;99.90;;;17.67;100.00;97235.41;4960066;28;20038;-45
2022/08/03 03:21:07;;;;;;;4.93;3.42;;;17.70;99.90;;;17.70;100.00;97235.22;4971798;28;20228;-43
2022/08/03 03:23:38;;;;;;;5.13;3.33;;;17.80;99.90;;;17.67;100.00;97235.41;4959684;28;21173;-45
2022/08/03 03:26:06;;;;;;;4.22;3.42;;;17.70;99.90;;;17.55;100.00;97216.63;4959034;28;20026;-44
2022/08/03 03:28:32;;;;;;;3.85;3.25;;;17.70;99.90;;;17.66;100.00;97239.91;4953620;28;20039;-45
2022/08/03 03:30:59;;;;;;;4.70;3.75;;;17.70;99.90;;;17.61;100.00;97225.19;4969249;28;20139;-44
2022/08/03 03:33:25;;;;;;;3.75;3.15;;;17.70;99.90;;;17.63;100.00;97232.09;4956530;28;20045;-44
2022/08/03 03:35:52;;;;;;;3.90;3.50;;;17.70;99.90;;;17.62;100.00;97225.09;4958614;28;22191;-46
2022/08/03 03:38:19;;;;;;;4.43;3.33;;;17.70;99.90;;;17.61;100.00;97236.69;4973048;28;20112;-46
2022/08/03 03:40:45;;;;;;;3.80;3.17;;;17.70;99.90;;;17.60;100.00;97237.63;4970891;28;20113;-44
2022/08/03 03:43:12;;;;;;;3.85;3.40;;;17.70;99.90;;;17.60;100.00;97237.63;4961732;28;20057;-43
2022/08/03 03:45:40;;;;;;;4.00;3.03;;;17.70;99.90;;;17.58;100.00;97234.22;4978564;28;20030;-44
2022/08/03 03:48:07;;;;;;;3.92;2.97;;;17.60;99.90;;;17.57;100.00;97243.19;4973566;28;20531;-45
2022/08/03 03:50:34;;;;;;;4.43;3.03;;;17.60;99.90;;;17.50;100.00;97228.56;4977630;28;20514;-44
2022/08/03 03:53:03;;;;;;;3.80;3.10;;;17.60;99.90;;;17.55;100.00;97235.31;4976336;28;20302;-45
2022/08/03 03:55:29;;;;;;;5.43;2.90;;;17.60;99.90;;;17.54;100.00;97227.41;4975291;28;20044;-45
2022/08/03 03:57:55;;;;;;;4.10;2.80;;;17.60;99.90;;;17.54;100.00;97222.06;4981225;28;20046;-44
2022/08/03 04:00:22;;;;;;;3.97;3.25;;;17.60;99.90;;;17.53;100.00;97225.69;4965469;28;20548;-43
2022/08/03 04:02:47;;;;;;;3.05;2.75;;;17.60;99.90;;;17.46;100.00;97221.72;4973661;28;20554;-44
2022/08/03 04:11:25;;;;;;;3.42;2.92;;;17.60;99.90;;;17.52;100.00;97235.50;4962144;28;20521;-44
2022/08/03 04:14:00;;;;;;;4.05;2.95;;;17.60;99.90;;;17.51;100.00;97239.09;4964116;28;20065;-44
2022/08/03 04:16:30;;;;;;;3.63;3.13;;;17.60;99.90;;;17.51;100.00;97240.94;4978960;28;20291;-44
2022/08/03 04:19:08;;;;;;;3.72;2.58;;;17.60;99.90;;;17.36;100.00;97213.50;4949684;28;20501;-44
2022/08/03 04:21:37;;;;;;;3.40;2.80;;;17.60;99.90;;;17.46;100.00;97233.25;4971784;28;20105;-44
2022/08/03 04:24:06;;;;;;;3.60;3.10;;;17.60;99.90;;;17.51;100.00;97240.94;4956059;28;20221;-45
2022/08/03 04:26:35;;;;;;;3.50;2.90;;;17.60;99.90;;;17.52;100.00;97243.50;4966642;28;20026;-44
2022/08/03 04:29:03;;;;;;;3.28;2.75;;;17.60;99.90;;;17.56;100.00;97244.13;4966676;28;20034;-44
2022/08/03 04:31:29;;;;;;;5.28;2.85;;;17.60;99.90;;;17.53;100.00;97231.88;4970695;28;20470;-44
2022/08/03 04:33:55;;;;;;;6.03;3.03;;;17.60;99.90;;;17.60;100.00;97244.78;4980252;28;20125;-45
2022/08/03 04:36:25;;;;;;;3.78;2.97;;;17.60;99.90;;;17.62;100.00;97249.09;4985528;28;20413;-47
2022/08/03 04:39:02;;;;;;;4.95;3.00;;;17.70;99.90;;;17.66;100.00;97255.06;4964937;28;20251;-44
2022/08/03 04:41:30;;;;;;;4.75;2.90;;;17.70;99.90;;;17.70;100.00;97248.56;4966527;28;20113;-44
2022/08/03 04:43:59;;;;;;;4.43;3.25;;;17.70;99.90;;;17.75;100.00;97251.75;4962068;28;20479;-44
2022/08/03 04:46:33;;;;;;;5.75;3.00;;;17.80;99.90;;;17.78;100.00;97256.00;4964870;28;20030;-44
2022/08/03 04:49:00;;;;;;;4.15;3.28;;;17.80;99.90;;;17.88;100.00;97262.47;4980033;28;20355;-44
2022/08/03 04:51:27;;;;;;;3.97;3.13;;;17.90;99.90;;;17.98;100.00;97262.69;4951482;28;20489;-45
2022/08/03 04:53:53;;;;;;;3.53;3.00;;;18.00;99.90;;;18.03;100.00;97258.72;4986856;28;20441;-45
2022/08/03 04:56:19;;;;;;;3.55;3.08;;;18.10;99.90;;;18.17;100.00;97259.59;4978838;28;20034;-45
2022/08/03 04:58:44;;;;;;;3.35;2.83;;;18.20;99.90;;;18.26;100.00;97270.47;4981043;28;20033;-43
2022/08/03 05:01:10;;;;;;;4.10;2.67;;;18.30;99.90;;;18.36;100.00;97268.03;4978884;28;20034;-46
2022/08/03 05:03:36;;;;;;;3.67;3.20;;;18.40;99.90;;;18.46;100.00;97274.41;4982189;28;20026;-44
2022/08/03 05:06:02;;;;;;;5.57;3.20;;;18.50;99.90;;;18.55;100.00;97269.38;4980568;28;20029;-44
2022/08/03 05:08:28;;;;;;;3.30;3.00;;;18.60;99.90;;;18.46;99.37;97239.69;4978769;28;20027;-43
2022/08/03 05:10:55;;;;;;;4.40;3.13;;;18.70;99.90;;;18.72;99.18;97266.34;4980190;28;20293;-47
2022/08/03 05:13:21;;;;;;;3.10;2.80;;;18.80;99.90;;;18.84;98.72;97268.19;4975997;28;20869;-48
2022/08/03 05:15:46;;;;;;;4.63;3.40;;;18.90;99.90;;;18.95;97.98;97266.53;4982877;28;20026;-45
2022/08/03 05:18:12;;;;;;;4.07;3.05;;;19.00;99.90;;;19.05;97.48;97268.41;4964495;28;20057;-44
2022/08/03 05:20:38;;;;;;;5.03;3.00;;;19.10;99.90;;;19.17;96.70;97265.81;4981592;28;20554;-43
2022/08/03 05:23:03;;;;;;;4.15;3.30;;;19.20;99.90;;;19.24;96.20;97270.59;4985202;28;20038;-44
2022/08/03 05:25:29;;;;;;;5.35;3.17;;;19.30;99.90;;;19.36;95.83;97275.97;4977514;28;21348;-44
2022/08/03 05:27:55;;;;;;;3.38;3.00;;;19.40;99.90;;;19.49;94.68;97282.13;4978551;28;20257;-44
2022/08/03 05:30:21;;;;;;;4.53;3.20;;;19.60;99.90;;;19.59;93.86;97271.59;4981834;28;20865;-44
2022/08/03 05:32:47;;;;;;;5.32;3.33;;;19.70;99.90;;;19.70;92.81;97282.31;4979118;28;20466;-44
2022/08/03 05:35:12;;;;;;;4.75;3.40;;;19.80;99.90;;;19.63;91.70;97251.66;4978034;28;20121;-45
2022/08/03 05:37:38;;;;;;;4.10;3.30;;;19.90;99.90;;;19.95;91.03;97283.16;4979203;28;20036;-44
2022/08/03 05:40:05;;;;;;;3.72;3.30;;;20.00;99.90;;;20.13;90.10;97286.22;4981200;28;20034;-44
2022/08/03 05:42:30;;;;;;;6.68;3.70;;;20.20;99.90;;;20.34;88.80;97283.72;4981023;28;20456;-44
2022/08/03 05:44:56;;;;;;;5.40;3.70;;;20.30;99.90;;;20.49;87.41;97281.66;4970604;28;20275;-46
2022/08/03 05:47:22;;;;;;;4.38;3.40;;;20.50;99.90;;;20.62;86.68;97282.44;4978500;28;20108;-45
2022/08/03 05:49:48;;;;;;;5.55;3.60;;;20.60;99.90;;;20.68;85.65;97279.25;4978133;28;20037;-46
2022/08/03 05:52:13;;;;;;;6.28;2.92;;;20.80;99.90;;;20.84;85.53;97276.19;4980315;28;20042;-46
2022/08/03 05:54:39;;;;;;;4.40;2.70;;;20.90;99.90;;;20.92;84.76;97281.75;4984137;28;20034;-45
2022/08/03 05:57:05;;;;;;;3.47;2.80;;;21.00;99.90;;;21.07;84.08;97276.16;4973743;28;20469;-45
2022/08/03 05:59:31;;;;;;;3.65;2.72;;;21.20;99.90;;;21.20;82.76;97273.31;4983641;28;20059;-44
2022/08/03 06:01:56;;;;;;;3.63;2.80;;;21.30;99.90;;;21.30;82.06;97274.25;4971164;28;20467;-45
2022/08/03 06:04:22;;;;;;;3.53;2.28;;;21.40;99.90;;;21.38;81.55;97269.13;4982889;28;20418;-44
2022/08/03 06:06:49;;;;;;;3.17;2.72;;;21.50;99.90;;;21.57;80.56;97278.34;4974410;28;20601;-45
2022/08/03 06:09:16;;;;;;;3.97;3.13;;;21.60;99.90;;;21.68;79.15;97275.63;4970883;28;20030;-45
2022/08/03 06:11:42;;;;;;;6.05;3.33;;;21.70;99.90;;;21.79;78.45;97278.25;4973074;28;20061;-46
2022/08/03 06:14:07;;;;;;;4.80;3.10;;;21.90;99.90;;;21.87;77.58;97275.75;4970576;28;20501;-45
2022/08/03 06:16:34;;;;;;;4.55;3.20;;;21.90;99.90;;;21.96;77.11;97278.63;4980741;28;20038;-44
2022/08/03 06:19:00;;;;;;;3.70;3.00;;;22.00;99.90;;;22.08;76.58;97277.59;4974738;28;20046;-45
2022/08/03 06:21:26;;;;;;;4.90;2.70;;;22.10;99.90;;;22.21;75.32;97286.28;4984175;28;20061;-46
2022/08/03 06:23:52;;;;;;;3.25;2.75;;;22.30;99.90;;;22.37;74.34;97287.69;4993289;28;20031;-45
2022/08/03 06:26:18;;;;;;;6.93;3.15;;;22.40;99.90;;;22.50;74.13;97291.00;4985000;28;20038;-45
2022/08/03 06:28:45;;;;;;;5.03;3.08;;;22.60;99.90;;;22.62;73.27;97287.22;4986530;28;20042;-46
2022/08/03 06:31:10;;;;;;;3.85;3.08;;;22.70;99.90;;;22.71;71.35;97285.56;4982938;28;20490;-44
2022/08/03 06:33:36;;;;;;;4.60;3.30;;;22.80;99.90;;;22.84;71.02;97288.03;4984299;28;20121;-45
2022/08/03 06:36:02;;;;;;;3.47;2.65;;;22.90;99.90;;;22.90;70.22;97275.88;4979791;28;20046;-44
2022/08/03 06:38:28;;;;;;;5.22;2.70;;;23.00;99.90;;;22.99;69.12;97289.38;4984711;28;20093;-45
2022/08/03 06:40:53;;;;;;;4.15;3.10;;;23.10;99.90;;;23.11;69.14;97291.97;4983002;28;20030;-45
2022/08/03 06:43:19;;;;;;;3.33;2.67;;;23.10;99.90;;;23.17;68.59;97281.50;4986199;28;20768;-46
2022/08/03 06:45:45;;;;;;;4.03;2.50;;;23.20;99.90;;;23.31;68.21;97290.16;4984687;28;20032;-47
2022/08/03 06:48:11;;;;;;;8.60;3.35;;;23.30;99.90;;;23.44;68.18;97286.22;4986105;28;20481;-46
2022/08/03 06:50:40;;;;;;;3.85;3.20;;;23.50;99.90;;;23.55;66.76;97290.63;4984407;28;20256;-44
2022/08/03 06:53:07;;;;;;;3.95;2.92;;;23.50;99.90;;;23.65;66.81;97296.00;4986846;28;20042;-45
2022/08/03 06:55:34;;;;;;;3.72;2.90;;;23.60;99.90;;;23.74;65.54;97300.56;4977714;28;20026;-46
2022/08/03 06:57:59;;;;;;;3.83;2.90;;;23.70;99.90;;;23.88;65.60;97293.06;4966731;28;20440;-44
2022/08/03 07:00:26;;;;;;;3.95;2.70;;;23.80;99.90;;;24.06;65.32;97294.03;4986734;28;20034;-45
2022/08/03 07:02:52;;;;;;;4.80;2.80;;;24.00;99.90;;;24.19;64.39;97302.66;4984613;28;20028;-45
2022/08/03 07:05:18;;;;;;;5.32;2.80;;;24.10;99.90;;;24.37;64.01;97304.59;4980878;28;20026;-43
2022/08/03 07:07:44;;;;;;;5.97;3.53;;;24.30;99.90;;;24.48;62.57;97304.44;4978293;28;20036;-45
2022/08/03 07:10:10;;;;;;;4.10;2.95;;;24.40;99.90;;;24.56;60.99;97309.97;4983320;28;20022;-45
2022/08/03 07:12:37;;;;;;;3.60;2.90;;;24.50;99.90;;;24.66;61.12;97301.03;4980096;28;20049;-41
2022/08/03 07:15:05;;;;;;;4.47;3.03;;;24.60;99.70;;;24.76;60.78;97307.22;4977882;28;20042;-45
2022/08/03 07:17:33;;;;;;;3.45;2.75;;;24.60;99.50;;;24.87;60.50;97308.88;4979699;28;20038;-42
2022/08/03 07:20:01;;;;;;;4.78;2.63;;;24.70;99.30;;;24.96;60.28;97300.75;4962838;28;20109;-44
2022/08/03 07:22:27;;;;;;;4.63;3.28;;;24.90;99.10;;;25.03;59.81;97303.69;4981563;28;20117;-43
2022/08/03 07:24:53;;;;;;;5.03;2.90;;;24.90;98.90;;;25.11;59.27;97301.09;4974737;28;20030;-44
2022/08/03 07:27:18;;;;;;;4.82;2.60;;;25.00;98.60;;;25.20;59.13;97298.50;4964580;28;20100;-42
2022/08/03 07:29:44;;;;;;;6.22;2.78;;;25.10;98.40;;;25.30;58.59;97299.28;4981291;28;20030;-44
2022/08/03 07:32:10;;;;;;;3.47;2.42;;;25.10;98.10;;;25.45;58.21;97303.19;4981776;28;20526;-46
2022/08/03 07:34:35;;;;;;;4.30;2.60;;;25.30;98.10;;;25.58;56.18;97307.38;4975931;28;20030;-43
2022/08/03 07:37:01;;;;;;;3.03;2.58;;;25.40;97.30;;;25.70;55.95;97301.59;4984095;28;20461;-47
2022/08/03 07:39:27;;;;;;;2.58;2.20;;;25.60;97.00;;;25.78;53.83;97310.78;4983880;28;20137;-46
2022/08/03 07:41:52;;;;;;;2.50;2.20;;;25.70;96.00;;;25.88;54.46;97304.28;4974466;28;20035;-43
2022/08/03 07:44:19;;;;;;;2.85;2.30;;;25.80;95.90;;;26.03;54.28;97303.75;4979592;28;20413;-46
2022/08/03 07:46:45;;;;;;;3.38;2.75;;;25.90;95.90;;;26.13;54.29;97304.53;4976976;28;20042;-43
2022/08/03 07:49:10;;;;;;;6.57;2.95;;;26.00;95.70;;;26.20;53.50;97307.44;4982632;28;20030;-45
2022/08/03 07:51:36;;;;;;;3.30;2.33;;;26.10;95.50;;;26.27;53.89;97308.50;4986099;28;20030;-45
2022/08/03 07:54:02;;;;;;;2.60;2.40;;;26.10;95.30;;;26.26;52.91;97296.00;4987665;28;20038;-43
2022/08/03 07:56:28;;;;;;;2.83;2.42;;;26.20;94.90;;;26.37;52.68;97292.19;4983658;28;20584;-44
2022/08/03 07:58:54;;;;;;;3.45;2.20;;;26.30;94.70;;;26.54;52.18;97304.81;4985322;28;20114;-47
2022/08/03 08:01:21;;;;;;;2.67;1.92;;;26.30;94.30;;;26.60;51.74;97303.31;4970187;28;20049;-42
2022/08/03 08:03:47;;;;;;;3.58;2.40;;;26.40;94.00;;;26.69;50.15;97301.56;4970884;28;20553;-43
2022/08/03 08:06:14;;;;;;;3.78;2.08;;;26.50;93.40;;;26.80;49.77;97302.09;4979432;28;20025;-45
2022/08/03 08:08:40;;;;;;;3.03;1.77;;;26.60;92.80;;;26.81;49.28;97298.41;4988158;28;20026;-43
2022/08/03 08:11:06;;;;;;;3.08;1.98;;;26.60;92.40;;;26.89;49.05;97294.03;4983968;28;20034;-44
2022/08/03 08:13:33;;;;;;;4.55;2.08;;;26.70;92.20;;;26.93;47.71;97298.09;4972973;28;20037;-44
2022/08/03 08:15:59;;;;;;;3.78;2.03;;;26.80;91.20;;;26.98;48.66;97287.66;4974005;28;20025;-42
2022/08/03 08:18:24;;;;;;;3.78;2.10;;;26.80;91.50;;;27.01;48.04;97296.28;4987489;28;20049;-45
2022/08/03 08:20:51;;;;;;;3.78;2.20;;;26.90;91.30;;;27.05;48.36;97294.94;4974188;28;20037;-43
2022/08/03 08:23:22;;;;;;;3.47;2.10;;;26.80;91.30;;;27.09;48.55;97291.91;4980187;28;20030;-42
2022/08/03 08:25:49;;;;;;;3.25;2.28;;;26.90;91.30;;;27.20;47.34;97292.44;4984571;28;20054;-43
2022/08/03 08:28:19;;;;;;;2.30;2.00;;;27.00;90.80;;;27.28;46.54;97302.50;4977400;28;20486;-42
2022/08/03 08:30:45;;;;;;;5.82;2.08;;;27.10;89.40;;;27.34;46.86;97301.00;4984510;28;20081;-42
2022/08/03 08:33:12;;;;;;;2.67;1.92;;;27.20;90.10;;;27.42;46.84;97293.75;4989281;28;20053;-44
2022/08/03 08:35:37;;;;;;;3.78;1.80;;;27.30;89.60;;;27.57;46.51;97299.34;4987089;28;20042;-44
2022/08/03 08:38:03;;;;;;;2.40;1.77;;;27.40;89.40;;;27.61;45.62;97292.59;4984626;28;20057;-44
2022/08/03 08:40:29;;;;;;;2.83;1.70;;;27.40;88.20;;;27.66;44.77;97292.09;4972556;28;20238;-44
2022/08/03 08:42:55;;;;;;;3.20;1.88;;;27.50;86.60;;;27.66;45.55;97297.50;4971935;28;20517;-43
2022/08/03 08:45:20;;;;;;;3.95;1.73;;;27.50;87.10;;;27.73;44.94;97289.56;4991443;28;20037;-44
2022/08/03 08:47:48;;;;;;;2.90;2.03;;;27.50;86.70;;;27.85;44.12;97298.22;4988278;28;20034;-45
2022/08/03 08:50:19;;;;;;;4.13;1.95;;;27.60;84.80;;;27.85;44.65;97295.50;4991159;28;20036;-42
2022/08/03 08:52:49;;;;;;;2.90;1.98;;;27.60;85.00;;;27.86;45.24;97292.63;4986206;28;20042;-43
2022/08/03 08:55:21;;;;;;;2.28;2.00;;;27.70;85.40;;;27.94;44.89;97295.38;4969977;28;20405;-41
2022/08/03 08:57:50;;;;;;;6.43;2.25;;;27.70;85.60;;;27.96;45.52;97295.19;4989564;28;20038;-41
2022/08/03 09:00:17;;;;;;;3.88;2.22;;;27.80;85.90;;;28.07;44.71;97294.03;4971564;28;20034;-41
2022/08/03 09:02:44;;;;;;;2.28;1.83;;;27.90;85.50;;;28.18;44.49;97294.50;4988180;28;20025;-42
2022/08/03 09:05:17;;;;;;;2.25;1.90;;;28.00;84.70;;;28.28;44.02;97304.34;4975479;28;20029;-45
2022/08/03 09:07:44;;;;;;;5.65;2.13;;;28.10;84.20;;;28.30;43.68;97302.28;4963783;28;20036;-41
2022/08/03 09:10:13;;;;;;;2.42;1.98;;;28.10;83.90;;;28.32;42.91;97300.28;4985505;28;20140;-42
2022/08/03 09:12:45;;;;;;;6.22;1.90;;;28.10;81.40;;;28.41;43.29;97301.09;4980516;28;20030;-41
2022/08/03 09:15:22;;;;;;;;;;;28.20;81.80;;;28.41;42.46;97299.25;4979318;28;20064;-41
2022/08/03 09:17:50;;;;;;;2.15;1.60;;;28.20;80.40;;;28.41;42.28;97293.81;4984025;28;19918;-42
2022/08/03 09:20:18;;;;;;;1.95;1.75;;;28.20;80.10;;;28.45;42.56;97288.91;4984105;28;20044;-41
2022/08/03 09:23:09;;;;;;;2.72;1.27;;;28.20;79.90;;;28.42;40.99;97281.94;4984111;28;20033;-41
2022/08/03 09:25:38;;;;;;;1.90;1.70;;;28.30;77.80;;;28.52;40.84;97285.31;4969990;28;20570;-41
2022/08/03 09:28:16;;;;;;;1.58;1.38;;;28.30;77.60;;;28.60;41.05;97287.19;4980756;28;20046;-41
2022/08/03 09:30:56;;;;;;;2.05;1.50;;;28.40;77.20;;;28.74;41.11;97285.63;4986626;28;20030;-41
2022/08/03 09:33:22;;;;;;;1.67;1.42;;;28.50;76.60;;;28.87;39.52;97295.94;4982507;28;20033;-41
2022/08/03 09:35:49;;;;;;;2.22;1.50;;;28.60;75.00;;;28.91;38.83;97286.41;4983443;28;20093;-41
2022/08/03 09:38:22;;;;;;;3.38;1.33;;;28.70;72.60;;;28.90;39.31;97290.16;4984833;28;20035;-41
2022/08/03 09:40:49;;;;;;;3.42;1.33;;;28.70;73.30;;;28.99;39.66;97288.28;4983082;28;20056;-43
2022/08/03 09:43:15;;;;;;;3.08;1.70;;;28.80;73.90;;;28.99;39.06;97291.81;4966642;28;20039;-43
2022/08/03 09:45:43;;;;;;;3.33;1.60;;;28.80;72.90;;;28.93;40.12;97289.81;4985135;28;20666;-42
2022/08/03 09:48:26;;;;;;;2.30;1.80;;;28.80;73.90;;;29.02;39.62;97286.06;4975607;28;20509;-41
2022/08/03 09:50:58;;;;;;;1.90;1.50;;;28.90;74.20;;;29.01;39.01;97286.22;4985604;28;20038;-44
2022/08/03 09:53:24;;;;;;;2.30;1.67;;;28.80;71.80;;;28.99;38.14;97283.69;4986970;28;20091;-43
2022/08/03 09:56:01;;;;;;;1.98;1.65;;;28.80;71.10;;;29.02;38.34;97280.63;4976875;28;20357;-42
2022/08/03 09:58:29;;;;;;;1.40;1.30;;;28.80;71.10;;;29.04;38.01;97272.31;4984191;28;20038;-40
2022/08/03 10:01:03;;;;;;;7.47;2.10;;;28.90;70.20;;;28.96;38.38;97264.19;4978913;28;20053;-40
2022/08/03 10:03:33;;;;;;;1.65;1.50;;;28.90;70.30;;;29.16;38.98;97270.91;4987050;28;20053;-40
2022/08/03 10:06:25;;;;;;;1.88;1.40;;;29.00;70.70;;;29.27;37.87;97272.38;4984483;28;20025;-40
2022/08/03 10:09:13;;;;;;;2.40;1.67;;;29.10;69.80;;;29.38;38.59;97269.28;4973192;28;20038;-40
2022/08/03 10:11:40;;;;;;;1.60;1.50;;;29.20;69.50;;;29.44;36.89;97267.72;4989148;28;20034;-39
2022/08/03 10:14:17;;;;;;;2.13;1.70;;;29.30;68.20;;;29.49;37.04;97273.44;4980465;28;20026;-39
2022/08/03 10:16:44;;;;;;;1.98;1.45;;;29.30;67.30;;;29.52;36.66;97267.63;4983501;28;20602;-39
2022/08/03 10:19:10;;;;;;;3.63;1.58;;;29.30;66.60;;;29.55;36.54;97269.16;4959427;28;20068;-39
2022/08/03 10:21:54;;;;;;;1.77;1.33;;;29.40;66.50;;;29.61;36.82;97258.44;4963436;28;20479;-39
2022/08/03 10:24:28;;;;;;;4.60;1.50;;;29.40;66.50;;;29.62;36.40;97256.56;4987265;28;20053;-39
2022/08/03 10:27:08;;;;;;;1.80;1.30;;;29.40;65.90;;;29.69;36.00;97265.66;4988065;28;20045;-39
2022/08/03 10:29:38;;;;;;;2.85;1.33;;;29.50;65.80;;;29.77;36.09;97256.63;4963355;28;20076;-39